Accueil
METAR-TAF:

METAR-TAF

Aéroports :

Aéroport international de Nadi

Nadi, Fidji

latitude: 17-45S, longitude: 177-27E, altitude: 13 m

Observation

Le bulletin a été fait il y a 23 minutes, à 06:00 UTC
Vent 5 kt de sud/sud-ouest
Température 27°C
Humidité 84%
Pression 1012 hPa
Visibilité 10 km ou plus
Nuages épars à une hauteur de 2800 ft
Nuages épars à une hauteur de 4800 ft

METAR: NFFN 210600Z 21005KT 9999 SCT028 SCT048 27/24 Q1012 NOSIG

Heure: 18:23 (06:23 UTC)

Prévision

Le bulletin a été fait il y a 1 heure et 23 minutes, à 05:00 UTC
Prévision valable du 21 à 06 UTC au 22 à 06 UTC
Vent 6 kt de est
Visibilité 10 km ou plus
Nuages épars à une hauteur de 2500 ft
Evoluant progressivement
du 21 à 22 UTC au 21 à 24 UTC
Vent 10 kt de ouest
Evoluant progressivement
du 22 à 04 UTC au 22 à 06 UTC
Vent 6 kt de est

TAF: NFFN 210500Z 2106/2206 08006KT 9999 SCT025 BECMG 2122/2124 26010KT BECMG 2204/2206 09006KT

Observations et prévisions météorologiques de plus de 4000 aéroports (messages METAR et TAF).

Les stations disponibles sont représentées par des disques jaunes et rouges sur la carte.

Passer la souris dessus pour voir le nom de la station.

Cliquer dessus pour voir les observations et prévisions météorologiques.

Pour changer de carte: cliquez sur les boutons verts avec une croix noire pour zoomer, sur le bouton vert avec un tiret pour effectuer un zoom arrière, ou sur les flèches vertes pour les cartes adjacentes.


METAR-TAF: